createdAt,value
2023-05-12T00:00:29.180Z,18.67
2023-05-12T00:03:16.355Z,18.58
2023-05-12T00:06:04.490Z,19.30
2023-05-12T00:08:52.195Z,18.45
2023-05-12T00:11:39.579Z,20.10
2023-05-12T00:14:26.872Z,21.60
2023-05-12T00:17:14.132Z,21.38
2023-05-12T00:20:01.448Z,20.02
2023-05-12T00:22:48.919Z,19.42
2023-05-12T00:25:43.176Z,19.20
2023-05-12T00:28:30.619Z,20.45
2023-05-12T00:31:18.550Z,21.30
2023-05-12T00:34:06.090Z,19.67
2023-05-12T00:36:53.315Z,19.27
2023-05-12T00:39:42.987Z,17.60
2023-05-12T00:42:30.321Z,16.42
2023-05-12T00:45:17.609Z,16.80
2023-05-12T00:48:06.613Z,15.52
2023-05-12T00:50:57.938Z,15.75
2023-05-12T00:53:49.725Z,14.32
2023-05-12T00:56:40.210Z,14.63
2023-05-12T00:59:29.694Z,15.57
2023-05-12T01:02:17.450Z,17.27
2023-05-12T01:05:05.882Z,16.38
2023-05-12T01:07:53.575Z,17.38
2023-05-12T01:10:44.781Z,18.63
2023-05-12T01:13:31.952Z,17.88
2023-05-12T01:16:24.657Z,16.83
2023-05-12T01:22:17.930Z,15.25
2023-05-12T01:25:08.392Z,15.80
2023-05-12T01:27:55.958Z,14.30
2023-05-12T01:30:46.444Z,15.00
2023-05-12T01:33:35.162Z,15.55
2023-05-12T01:36:22.359Z,15.50
2023-05-12T01:39:09.657Z,14.75
2023-05-12T01:41:56.879Z,14.70
2023-05-12T01:44:44.119Z,16.10
2023-05-12T01:47:31.951Z,16.63
2023-05-12T01:50:19.446Z,15.13
2023-05-12T01:53:06.821Z,15.75
2023-05-12T01:55:56.295Z,15.95
2023-05-12T01:58:43.829Z,17.90
2023-05-12T02:01:32.362Z,17.15
2023-05-12T02:04:19.551Z,17.65
2023-05-12T02:07:08.864Z,17.23
2023-05-12T02:09:56.443Z,17.75
2023-05-12T02:12:43.785Z,16.70
2023-05-12T02:15:31.098Z,17.35
2023-05-12T02:18:23.439Z,17.00
2023-05-12T02:21:16.925Z,16.25
2023-05-12T02:24:04.361Z,16.38
2023-05-12T02:26:51.614Z,17.13
2023-05-12T02:29:42.119Z,16.30
2023-05-12T02:32:32.590Z,14.98
2023-05-12T02:35:20.032Z,14.63
2023-05-12T02:38:07.337Z,13.48
2023-05-12T02:40:54.824Z,14.05
2023-05-12T02:43:42.357Z,15.73
2023-05-12T02:46:29.895Z,14.00
2023-05-12T02:49:20.434Z,17.75
2023-05-12T02:52:07.604Z,17.90
2023-05-12T02:54:57.852Z,16.65
2023-05-12T02:57:45.030Z,16.05
2023-05-12T03:00:36.938Z,15.55
2023-05-12T03:03:24.466Z,15.77
2023-05-12T03:06:11.699Z,17.05
2023-05-12T03:08:59.891Z,17.70
2023-05-12T03:11:49.663Z,16.52
2023-05-12T03:14:36.859Z,17.10
2023-05-12T03:17:26.887Z,16.95
2023-05-12T03:20:14.158Z,17.95
2023-05-12T03:23:01.326Z,17.20
2023-05-12T03:25:48.772Z,17.15
2023-05-12T03:28:36.090Z,18.02
2023-05-12T03:31:23.392Z,21.83
2023-05-12T03:34:13.644Z,19.40
2023-05-12T03:37:03.338Z,20.75
2023-05-12T03:39:50.673Z,19.83
2023-05-12T03:42:37.861Z,20.90
2023-05-12T03:45:25.315Z,20.65
2023-05-12T03:48:12.560Z,20.25
2023-05-12T03:50:59.919Z,18.92
2023-05-12T03:53:49.599Z,18.17
2023-05-12T03:56:36.893Z,18.50
2023-05-12T03:59:24.113Z,20.25
2023-05-12T04:02:13.165Z,25.33
2023-05-12T04:05:03.345Z,22.33
2023-05-12T04:07:53.017Z,22.35
2023-05-12T04:10:41.098Z,22.25
2023-05-12T04:13:34.010Z,21.75
2023-05-12T04:16:21.447Z,22.40
2023-05-12T04:19:11.266Z,23.65
2023-05-12T04:21:58.559Z,26.42
2023-05-12T04:24:45.767Z,27.13
2023-05-12T04:27:32.912Z,25.00
2023-05-12T04:30:20.412Z,25.00
2023-05-12T04:33:11.161Z,33.08
2023-05-12T04:35:59.018Z,29.45
2023-05-12T04:38:47.463Z,29.52
2023-05-12T04:41:34.724Z,31.40
2023-05-12T04:44:24.174Z,29.75
2023-05-12T04:47:11.416Z,29.75
2023-05-12T04:49:58.661Z,31.65
2023-05-12T04:52:46.408Z,29.67
2023-05-12T04:55:48.224Z,29.40
2023-05-12T04:58:35.508Z,26.90
2023-05-12T05:01:27.287Z,28.00
2023-05-12T05:04:25.136Z,27.27
2023-05-12T05:07:20.411Z,24.25
2023-05-12T05:10:08.371Z,25.33
2023-05-12T05:13:00.676Z,26.15
2023-05-12T05:19:57.492Z,26.73
2023-05-12T05:22:49.506Z,26.75
2023-05-12T05:25:41.686Z,26.60
2023-05-12T05:28:29.052Z,25.73
2023-05-12T05:31:19.682Z,25.25
2023-05-12T05:34:57.070Z,23.92
2023-05-12T05:37:57.272Z,22.75
2023-05-12T05:41:24.929Z,21.10
2023-05-12T06:03:55.420Z,18.15
2023-05-12T06:06:42.823Z,17.08
2023-05-12T06:09:38.676Z,18.42
2023-05-12T06:12:29.504Z,18.23
2023-05-12T06:15:17.352Z,16.20
2023-05-12T06:18:30.823Z,15.48
2023-05-12T06:22:32.790Z,14.77
2023-05-12T06:28:31.856Z,15.10
2023-05-12T06:34:38.398Z,12.30
2023-05-12T06:37:28.062Z,11.88
2023-05-12T06:41:03.304Z,11.63
2023-05-12T06:43:55.463Z,10.90
2023-05-12T06:46:42.799Z,11.45
2023-05-12T06:54:29.303Z,8.38
2023-05-12T06:57:16.718Z,7.75
2023-05-12T07:08:17.632Z,6.88
2023-05-12T07:11:07.148Z,6.65
2023-05-12T07:13:54.562Z,6.70
2023-05-12T07:16:42.300Z,7.75
2023-05-12T07:19:39.091Z,5.80
2023-05-12T07:23:38.327Z,5.50
2023-05-12T07:31:29.902Z,6.60
2023-05-12T07:45:12.982Z,6.10
2023-05-12T07:51:10.029Z,5.85
2023-05-12T07:53:58.543Z,6.90
2023-05-12T07:56:53.934Z,6.63
2023-05-12T07:59:41.507Z,5.40
2023-05-12T08:02:28.998Z,4.95
2023-05-12T08:05:21.394Z,5.40
2023-05-12T08:08:16.863Z,5.65
2023-05-12T08:11:10.107Z,5.20
2023-05-12T08:14:25.407Z,6.25
2023-05-12T08:17:10.836Z,5.50
2023-05-12T08:19:58.214Z,5.35
2023-05-12T08:22:49.876Z,5.38
2023-05-12T08:25:44.746Z,5.63
2023-05-12T08:28:34.404Z,5.28
2023-05-12T08:32:35.070Z,5.75
2023-05-12T08:34:56.009Z,5.68
2023-05-12T08:37:43.664Z,4.80
2023-05-12T08:40:35.202Z,5.32
2023-05-12T08:43:38.513Z,4.15
2023-05-12T08:46:29.142Z,3.72
2023-05-12T08:49:21.121Z,3.45
2023-05-12T08:52:13.119Z,3.42
2023-05-12T08:55:04.772Z,3.13
2023-05-12T08:57:52.939Z,2.78
2023-05-12T09:00:52.100Z,2.42
2023-05-12T09:04:05.590Z,2.20
2023-05-12T09:07:18.457Z,2.50
2023-05-12T09:10:05.213Z,2.80
2023-05-12T09:13:23.314Z,2.70
2023-05-12T09:16:14.407Z,2.60
2023-05-12T09:19:13.904Z,2.33
2023-05-12T09:22:01.611Z,2.35
2023-05-12T09:24:50.020Z,2.33
2023-05-12T09:27:37.233Z,2.42
2023-05-12T09:30:33.175Z,3.38
2023-05-12T09:33:23.121Z,2.50
2023-05-12T09:36:11.710Z,1.90
2023-05-12T09:39:04.972Z,1.92
2023-05-12T09:42:09.749Z,2.03
2023-05-12T09:45:12.699Z,1.73
2023-05-12T09:48:11.050Z,1.88
2023-05-12T09:50:58.994Z,1.50
2023-05-12T09:53:52.149Z,1.27
2023-05-12T09:56:42.372Z,1.17
2023-05-12T09:59:44.100Z,1.48
2023-05-12T10:03:09.584Z,1.42
2023-05-12T10:06:01.080Z,1.08
2023-05-12T10:09:25.691Z,1.08
2023-05-12T10:12:16.435Z,1.00
2023-05-12T10:15:04.418Z,1.08
2023-05-12T10:17:55.156Z,0.80
2023-05-12T10:20:56.233Z,1.25
2023-05-12T10:23:57.689Z,1.60
2023-05-12T10:38:34.764Z,1.45
2023-05-12T10:39:59.335Z,1.50
2023-05-12T10:47:15.629Z,1.95
2023-05-12T10:51:48.910Z,1.63
2023-05-12T10:54:11.985Z,1.92
2023-05-12T11:00:56.053Z,1.60
2023-05-12T11:05:13.081Z,2.03
2023-05-12T11:07:35.342Z,1.77
2023-05-12T11:10:24.358Z,1.33
2023-05-12T11:13:15.768Z,1.50
2023-05-12T11:20:25.642Z,2.08
2023-05-12T11:23:39.659Z,1.60
2023-05-12T11:36:03.926Z,1.60
2023-05-12T11:42:05.519Z,1.50
2023-05-12T11:50:56.304Z,2.33
2023-05-12T11:54:29.737Z,2.40
2023-05-12T12:01:51.372Z,2.15
2023-05-12T12:20:22.480Z,3.30
2023-05-12T12:23:14.380Z,3.53
2023-05-12T12:32:56.149Z,3.20
2023-05-12T12:48:43.751Z,1.23
2023-05-12T13:40:54.016Z,1.60
2023-05-12T13:50:20.568Z,1.50
2023-05-12T13:56:43.537Z,1.80
2023-05-12T13:59:31.705Z,1.67
2023-05-12T14:02:19.403Z,1.88
2023-05-12T14:05:15.413Z,2.58
2023-05-12T14:08:08.208Z,2.90
2023-05-12T14:11:09.495Z,3.20
2023-05-12T14:14:03.968Z,4.07
2023-05-12T14:16:56.931Z,4.10
2023-05-12T14:19:58.543Z,4.50
2023-05-12T14:22:48.922Z,4.03
2023-05-12T14:25:36.719Z,4.13
2023-05-12T14:28:24.242Z,3.67
2023-05-12T14:31:13.873Z,3.33
2023-05-12T14:34:01.541Z,2.92
2023-05-12T14:36:48.994Z,3.50
2023-05-12T14:39:36.133Z,2.90
2023-05-12T14:42:23.895Z,3.50
2023-05-12T14:45:11.276Z,4.10
2023-05-12T14:47:59.884Z,3.45
2023-05-12T14:50:47.357Z,4.32
2023-05-12T14:53:34.914Z,4.45
2023-05-12T14:56:31.624Z,4.43
2023-05-12T14:59:21.838Z,4.55
2023-05-12T15:02:12.824Z,5.07
2023-05-12T15:05:00.513Z,4.57
2023-05-12T15:07:49.104Z,5.35
2023-05-12T15:10:36.737Z,4.82
2023-05-12T15:13:25.248Z,4.88
2023-05-12T15:16:13.989Z,5.70
2023-05-12T15:19:03.529Z,5.78
2023-05-12T15:21:54.095Z,7.28
2023-05-12T15:24:43.092Z,6.40
2023-05-12T15:27:32.759Z,6.35
2023-05-12T15:30:39.328Z,7.93
2023-05-12T15:33:34.128Z,8.25
2023-05-12T15:36:48.212Z,7.68
2023-05-12T15:39:32.506Z,6.63
2023-05-12T15:42:26.551Z,6.85
2023-05-12T15:45:22.748Z,6.43
2023-05-12T15:48:10.995Z,6.15
2023-05-12T15:50:58.326Z,7.18
2023-05-12T15:53:45.880Z,6.68
2023-05-12T15:56:34.022Z,6.35
2023-05-12T15:59:21.310Z,6.40
2023-05-12T16:02:09.615Z,6.97
2023-05-12T16:04:59.349Z,6.38
2023-05-12T16:07:48.015Z,6.57
2023-05-12T16:10:35.334Z,5.38
2023-05-12T16:13:25.270Z,4.60
2023-05-12T16:16:17.888Z,5.20
2023-05-12T16:22:00.755Z,5.25
2023-05-12T16:24:48.443Z,5.10
2023-05-12T16:27:36.762Z,4.78
2023-05-12T16:30:24.273Z,4.50
2023-05-12T16:33:16.068Z,5.35
2023-05-12T16:36:03.430Z,6.20
2023-05-12T16:38:53.119Z,4.70
2023-05-12T16:41:43.366Z,4.53
2023-05-12T16:44:30.697Z,4.65
2023-05-12T16:47:18.294Z,4.85
2023-05-12T16:50:06.374Z,4.32
2023-05-12T16:52:56.461Z,4.85
2023-05-12T16:55:44.016Z,4.45
2023-05-12T16:58:31.785Z,5.10
2023-05-12T17:01:19.198Z,4.80
2023-05-12T17:04:08.046Z,5.05
2023-05-12T17:06:55.298Z,4.60
2023-05-12T17:09:43.000Z,5.00
2023-05-12T17:12:30.214Z,5.18
2023-05-12T17:15:17.394Z,4.72
2023-05-12T17:18:06.143Z,4.72
2023-05-12T17:20:53.427Z,4.68
2023-05-12T17:23:41.456Z,4.57
2023-05-12T17:26:29.620Z,4.53
2023-05-12T17:29:17.203Z,4.55
2023-05-12T17:32:05.118Z,5.22
2023-05-12T17:34:54.550Z,4.80
2023-05-12T17:37:41.770Z,4.82
2023-05-12T17:40:29.528Z,4.68
2023-05-12T17:43:16.892Z,5.50
2023-05-12T17:46:07.745Z,5.72
2023-05-12T17:48:55.131Z,4.68
2023-05-12T17:51:44.543Z,4.85
2023-05-12T17:54:31.782Z,4.70
2023-05-12T17:57:22.033Z,4.50
2023-05-12T18:00:10.560Z,4.18
2023-05-12T18:03:00.918Z,4.57
2023-05-12T18:05:50.588Z,5.07
2023-05-12T18:08:37.805Z,4.97
2023-05-12T18:11:31.953Z,4.93
2023-05-12T18:14:19.200Z,5.38
2023-05-12T18:17:06.516Z,4.85
2023-05-12T18:19:54.248Z,5.85
2023-05-12T18:22:41.740Z,5.22
2023-05-12T18:25:29.260Z,5.10
2023-05-12T18:28:17.719Z,5.55
2023-05-12T18:31:15.163Z,6.10
2023-05-12T18:34:06.001Z,4.93
2023-05-12T18:36:53.951Z,5.30
2023-05-12T18:39:44.208Z,5.28
2023-05-12T18:43:02.575Z,6.25
2023-05-12T18:45:52.012Z,6.35
2023-05-12T18:48:41.775Z,5.75
2023-05-12T18:51:29.353Z,6.55
2023-05-12T18:54:18.967Z,6.90
2023-05-12T18:57:11.444Z,7.05
2023-05-12T19:00:09.976Z,6.47
2023-05-12T19:02:57.754Z,7.25
2023-05-12T19:05:49.264Z,7.60
2023-05-12T19:08:36.731Z,6.60
2023-05-12T19:11:27.257Z,6.88
2023-05-12T19:14:17.153Z,6.20
2023-05-12T19:17:05.354Z,6.40
2023-05-12T19:19:53.154Z,6.80
2023-05-12T19:22:41.909Z,6.45
2023-05-12T19:25:29.855Z,5.97
2023-05-12T19:28:17.248Z,5.97
2023-05-12T19:31:16.730Z,6.25
2023-05-12T19:34:04.377Z,6.03
2023-05-12T19:37:00.903Z,6.60
2023-05-12T19:40:18.343Z,5.78
2023-05-12T19:43:10.661Z,5.38
2023-05-12T19:45:58.060Z,5.45
2023-05-12T19:48:47.812Z,5.55
2023-05-12T19:51:37.518Z,5.57
2023-05-12T19:54:25.249Z,5.13
2023-05-12T19:57:14.368Z,5.53
2023-05-12T20:00:01.919Z,5.28
2023-05-12T20:02:49.475Z,5.60
2023-05-12T20:05:38.031Z,5.22
2023-05-12T20:08:25.424Z,5.57
2023-05-12T20:11:16.024Z,5.85
2023-05-12T20:14:06.597Z,5.95
2023-05-12T20:16:56.440Z,5.40
2023-05-12T20:19:43.926Z,5.32
2023-05-12T20:22:32.033Z,5.95
2023-05-12T20:25:20.031Z,5.40
2023-05-12T20:28:09.676Z,5.43
2023-05-12T20:30:58.970Z,4.75
2023-05-12T20:33:46.351Z,4.30
2023-05-12T20:36:34.739Z,4.72
2023-05-12T20:39:21.947Z,4.82
2023-05-12T20:42:12.178Z,4.47
2023-05-12T20:44:59.498Z,4.43
2023-05-12T20:47:49.492Z,4.95
2023-05-12T20:50:37.075Z,3.45
2023-05-12T20:53:24.399Z,3.97
2023-05-12T20:56:12.955Z,4.05
2023-05-12T20:59:00.524Z,4.10
2023-05-12T21:01:53.821Z,4.18
2023-05-12T21:04:41.241Z,4.38
2023-05-12T21:07:30.878Z,4.03
2023-05-12T21:10:18.228Z,4.13
2023-05-12T21:13:05.658Z,3.90
2023-05-12T21:15:52.838Z,4.15
2023-05-12T21:18:40.147Z,3.72
2023-05-12T21:21:29.235Z,4.00
2023-05-12T21:24:18.889Z,4.05
2023-05-12T21:27:08.238Z,3.70
2023-05-12T21:29:57.541Z,4.18
2023-05-12T21:32:45.101Z,4.07
2023-05-12T21:35:38.042Z,4.25
2023-05-12T21:38:25.232Z,4.50
2023-05-12T21:41:12.515Z,4.18
2023-05-12T21:43:59.733Z,4.00
2023-05-12T21:46:47.005Z,3.92
2023-05-12T21:49:34.436Z,3.85
2023-05-12T21:52:21.772Z,3.90
2023-05-12T21:55:09.787Z,3.85
2023-05-12T21:57:57.457Z,3.90
2023-05-12T22:00:45.253Z,3.70
2023-05-12T22:03:32.989Z,3.28
2023-05-12T22:06:20.251Z,3.60
2023-05-12T22:09:07.918Z,3.58
2023-05-12T22:11:55.219Z,3.42
2023-05-12T22:14:43.520Z,3.50
2023-05-12T22:17:30.800Z,3.85
2023-05-12T22:20:19.117Z,3.55
2023-05-12T22:23:06.709Z,3.42
2023-05-12T22:25:56.122Z,3.28
2023-05-12T22:28:44.086Z,3.42
2023-05-12T22:31:34.475Z,3.38
2023-05-12T22:34:21.636Z,3.58
2023-05-12T22:37:11.160Z,3.83
2023-05-12T22:39:58.312Z,3.80
2023-05-12T22:42:45.502Z,3.75
2023-05-12T22:45:35.137Z,3.72
2023-05-12T22:48:24.318Z,3.72
2023-05-12T22:51:14.578Z,3.60
2023-05-12T22:54:01.696Z,3.80
2023-05-12T22:56:49.033Z,3.60
2023-05-12T22:59:36.332Z,4.47
2023-05-12T23:02:23.561Z,3.80
2023-05-12T23:05:11.152Z,3.97
2023-05-12T23:08:02.903Z,4.57
2023-05-12T23:10:53.372Z,5.33
2023-05-12T23:13:45.031Z,4.95
2023-05-12T23:16:32.321Z,5.55
2023-05-12T23:19:19.613Z,5.97
2023-05-12T23:22:15.589Z,5.97
2023-05-12T23:25:02.812Z,5.40
2023-05-12T23:27:53.276Z,6.70
2023-05-12T23:30:40.511Z,7.78
2023-05-12T23:33:30.130Z,7.88
2023-05-12T23:36:20.465Z,8.18
2023-05-12T23:39:10.321Z,8.25
2023-05-12T23:41:58.588Z,9.57
2023-05-12T23:44:45.978Z,9.00
2023-05-12T23:47:38.474Z,10.00
2023-05-12T23:50:25.993Z,10.70
2023-05-12T23:53:13.169Z,10.60
2023-05-12T23:56:00.431Z,10.60
2023-05-12T23:58:47.995Z,11.85
